createdAt,value
2019-03-18T00:02:11.470Z,5.08
2019-03-18T00:05:14.798Z,6.57
2019-03-18T00:08:18.116Z,2.83
2019-03-18T00:11:21.476Z,5.80
2019-03-18T00:14:24.790Z,3.72
2019-03-18T00:17:28.083Z,3.17
2019-03-18T00:20:31.410Z,4.27
2019-03-18T00:23:34.731Z,4.70
2019-03-18T00:26:38.085Z,3.47
2019-03-18T00:29:41.401Z,4.30
2019-03-18T00:32:44.684Z,5.13
2019-03-18T00:35:48.013Z,5.63
2019-03-18T00:38:51.327Z,3.50
2019-03-18T00:41:54.678Z,4.90
2019-03-18T00:44:57.958Z,4.20
2019-03-18T00:48:01.256Z,4.60
2019-03-18T00:51:04.574Z,7.53
2019-03-18T00:54:07.906Z,5.10
2019-03-18T00:57:11.215Z,5.57
2019-03-18T01:00:15.771Z,6.67
2019-03-18T01:03:19.082Z,7.37
2019-03-18T01:06:22.410Z,7.27
2019-03-18T01:09:25.823Z,5.13
2019-03-18T01:12:29.123Z,5.93
2019-03-18T01:15:32.453Z,5.37
2019-03-18T01:18:35.763Z,5.73
2019-03-18T01:21:39.689Z,4.13
2019-03-18T01:24:42.900Z,7.97
2019-03-18T01:27:46.272Z,4.60
2019-03-18T01:30:49.594Z,4.43
2019-03-18T01:33:52.894Z,6.33
2019-03-18T01:36:56.201Z,5.30
2019-03-18T01:39:59.509Z,5.03
2019-03-18T01:43:02.820Z,5.70
2019-03-18T01:46:06.125Z,7.50
2019-03-18T01:49:09.565Z,6.13
2019-03-18T01:52:12.867Z,6.20
2019-03-18T01:55:16.190Z,6.30
2019-03-18T01:58:19.531Z,5.30
2019-03-18T02:01:22.864Z,3.57
2019-03-18T02:04:26.154Z,6.17
2019-03-18T02:07:29.466Z,5.17
2019-03-18T02:10:32.799Z,4.40
2019-03-18T02:13:36.139Z,4.97
2019-03-18T02:16:39.444Z,4.57
2019-03-18T02:19:42.773Z,4.83
2019-03-18T02:22:46.085Z,3.90
2019-03-18T02:25:49.501Z,2.10
2019-03-18T02:28:52.792Z,2.90
2019-03-18T02:31:56.101Z,2.40
2019-03-18T02:34:59.392Z,4.10
2019-03-18T02:38:02.789Z,3.17
2019-03-18T02:41:06.079Z,5.17
2019-03-18T02:44:09.399Z,1.93
2019-03-18T02:47:12.719Z,1.70
2019-03-18T02:50:16.019Z,4.40
2019-03-18T02:53:19.349Z,2.87
2019-03-18T02:56:22.658Z,4.40
2019-03-18T02:59:25.962Z,2.67
2019-03-18T03:02:29.264Z,2.90
2019-03-18T03:05:32.591Z,3.27
2019-03-18T03:08:35.942Z,9.60
2019-03-18T03:11:39.234Z,4.17
2019-03-18T03:14:42.568Z,3.33
2019-03-18T03:17:45.903Z,3.60
2019-03-18T03:20:49.203Z,3.90
2019-03-18T03:23:52.518Z,4.03
2019-03-18T03:26:55.815Z,2.83
2019-03-18T03:29:59.143Z,2.63
2019-03-18T03:33:02.468Z,3.17
2019-03-18T03:36:05.768Z,4.10
2019-03-18T03:39:09.077Z,4.50
2019-03-18T03:42:12.372Z,4.87
2019-03-18T03:45:15.683Z,3.10
2019-03-18T03:48:19.001Z,3.60
2019-03-18T03:51:22.288Z,2.30
2019-03-18T03:54:25.595Z,5.47
2019-03-18T03:57:28.899Z,2.77
2019-03-18T04:00:32.203Z,9.73
2019-03-18T04:03:38.666Z,4.60
2019-03-18T04:06:40.659Z,2.97
2019-03-18T04:09:44.041Z,3.60
2019-03-18T04:12:47.334Z,1.87
2019-03-18T04:15:50.650Z,2.70
2019-03-18T04:18:54.033Z,3.10
2019-03-18T04:21:57.307Z,4.27
2019-03-18T04:25:00.638Z,3.13
2019-03-18T04:28:03.903Z,4.10
2019-03-18T04:31:07.213Z,5.67
2019-03-18T04:34:10.525Z,2.47
2019-03-18T04:37:13.835Z,4.83
2019-03-18T04:40:17.156Z,2.57
2019-03-18T04:43:20.442Z,6.13
2019-03-18T04:46:23.767Z,2.93
2019-03-18T04:49:27.082Z,3.93
2019-03-18T04:52:30.380Z,7.83
2019-03-18T04:55:33.698Z,4.53
2019-03-18T04:58:36.982Z,4.43
2019-03-18T05:01:40.356Z,3.03
2019-03-18T05:04:43.674Z,2.90
2019-03-18T05:07:46.966Z,3.43
2019-03-18T05:10:50.283Z,3.80
2019-03-18T05:13:53.668Z,6.27
2019-03-18T05:16:57.151Z,3.33
2019-03-18T05:20:00.460Z,2.77
2019-03-18T05:23:03.736Z,3.50
2019-03-18T05:26:07.056Z,4.07
2019-03-18T05:29:10.360Z,3.10
2019-03-18T05:32:13.699Z,4.60
2019-03-18T05:35:17.015Z,3.60
2019-03-18T05:38:20.311Z,3.17
2019-03-18T05:41:23.634Z,3.63
2019-03-18T05:44:26.922Z,6.97
2019-03-18T05:47:39.111Z,3.33
2019-03-18T05:50:35.261Z,3.83
2019-03-18T05:53:38.699Z,3.77
2019-03-18T05:56:42.011Z,3.53
2019-03-18T06:03:55.358Z,3.05
2019-03-18T06:06:59.303Z,3.85
2019-03-18T06:28:03.900Z,5.35
2019-03-18T07:38:53.737Z,7.10
2019-03-18T07:41:57.036Z,4.87
2019-03-18T07:45:00.418Z,5.00
2019-03-18T07:48:06.380Z,6.22
2019-03-18T07:51:08.736Z,3.10
2019-03-18T07:54:12.104Z,7.37
2019-03-18T07:57:15.423Z,8.28
2019-03-18T08:00:18.751Z,4.53
2019-03-18T08:03:22.060Z,9.63
2019-03-18T08:06:25.399Z,5.47
2019-03-18T08:09:28.833Z,3.52
2019-03-18T08:12:32.148Z,6.30
2019-03-18T08:15:35.465Z,4.78
2019-03-18T08:18:43.526Z,5.58
2019-03-18T08:21:43.887Z,5.35
2019-03-18T08:24:47.206Z,6.87
2019-03-18T08:27:50.619Z,5.95
2019-03-18T08:30:53.942Z,5.62
2019-03-18T08:33:57.240Z,6.00
2019-03-18T08:37:00.537Z,10.08
2019-03-18T08:40:06.002Z,7.10
2019-03-18T08:43:09.306Z,7.58
2019-03-18T08:46:12.647Z,6.08
2019-03-18T08:49:15.970Z,5.50
2019-03-18T08:52:19.385Z,3.40
2019-03-18T08:55:22.697Z,4.80
2019-03-18T08:58:26.084Z,8.18
2019-03-18T09:01:29.429Z,4.28
2019-03-18T09:04:32.739Z,3.55
2019-03-18T09:07:36.095Z,7.87
2019-03-18T09:10:39.391Z,7.00
2019-03-18T09:13:42.730Z,4.62
2019-03-18T09:16:46.111Z,4.50
2019-03-18T09:19:49.436Z,10.78
2019-03-18T09:22:52.747Z,9.63
2019-03-18T09:25:56.436Z,3.27
2019-03-18T09:28:59.822Z,3.77
2019-03-18T09:32:03.144Z,6.35
2019-03-18T09:35:07.216Z,5.55
2019-03-18T09:38:10.571Z,6.55
2019-03-18T09:41:13.924Z,6.92
2019-03-18T09:44:17.292Z,5.95
2019-03-18T09:47:20.578Z,5.62
2019-03-18T09:50:25.718Z,3.10
2019-03-18T09:53:28.987Z,6.28
2019-03-18T09:56:32.405Z,3.77
2019-03-18T09:59:35.788Z,5.37
2019-03-18T10:02:39.109Z,5.37
2019-03-18T10:05:43.937Z,6.45
2019-03-18T10:08:47.584Z,3.83
2019-03-18T10:11:50.887Z,4.62
2019-03-18T10:14:54.210Z,4.95
2019-03-18T10:17:57.496Z,4.55
2019-03-18T10:21:00.879Z,5.92
2019-03-18T10:24:04.237Z,4.35
2019-03-18T10:27:07.530Z,7.85
2019-03-18T10:30:16.916Z,6.50
2019-03-18T10:33:20.297Z,8.58
2019-03-18T10:36:23.616Z,5.97
2019-03-18T10:39:26.955Z,7.35
2019-03-18T10:42:30.271Z,6.62
2019-03-18T10:45:33.582Z,4.78
2019-03-18T10:48:36.884Z,5.65
2019-03-18T10:51:40.264Z,5.65
2019-03-18T10:54:43.570Z,4.53
2019-03-18T10:57:46.873Z,5.78
2019-03-18T11:00:50.216Z,8.90
2019-03-18T11:03:53.481Z,7.75
2019-03-18T11:06:56.814Z,6.35
2019-03-18T11:10:00.260Z,6.83
2019-03-18T11:13:03.712Z,6.90
2019-03-18T11:16:07.072Z,5.35
2019-03-18T11:19:10.373Z,7.20
2019-03-18T11:22:13.687Z,7.10
2019-03-18T11:25:17.469Z,7.75
2019-03-18T11:28:20.788Z,8.65
2019-03-18T11:31:24.183Z,5.97
2019-03-18T11:34:27.470Z,8.18
2019-03-18T11:37:30.789Z,6.22
2019-03-18T11:40:34.084Z,6.40
2019-03-18T11:43:37.397Z,5.65
2019-03-18T11:46:40.818Z,4.80
2019-03-18T11:49:45.725Z,6.28
2019-03-18T11:52:49.072Z,6.20
2019-03-18T11:55:52.393Z,6.30
2019-03-18T11:58:55.683Z,5.22
2019-03-18T12:01:59.070Z,9.28
2019-03-18T12:05:02.410Z,9.08
2019-03-18T12:08:05.706Z,6.92
2019-03-18T12:11:09.037Z,9.33
2019-03-18T12:14:12.335Z,8.93
2019-03-18T12:17:15.648Z,6.60
2019-03-18T12:20:24.693Z,6.50
2019-03-18T12:23:23.999Z,8.93
2019-03-18T12:26:27.309Z,6.17
2019-03-18T12:29:30.599Z,5.90
2019-03-18T12:32:33.931Z,14.23
2019-03-18T12:35:37.263Z,5.40
2019-03-18T12:38:40.564Z,8.45
2019-03-18T12:41:43.883Z,6.17
2019-03-18T12:44:47.171Z,6.83
2019-03-18T12:47:50.482Z,9.15
2019-03-18T12:50:56.155Z,8.35
2019-03-18T12:53:58.831Z,10.35
2019-03-18T12:57:02.150Z,7.92
2019-03-18T13:00:18.176Z,8.58
2019-03-18T13:03:21.481Z,7.65
2019-03-18T13:06:24.887Z,6.62
2019-03-18T13:09:28.266Z,6.80
2019-03-18T13:12:31.585Z,8.78
2019-03-18T13:15:34.902Z,9.13
2019-03-18T13:18:38.199Z,5.10
2019-03-18T13:21:41.520Z,9.10
2019-03-18T13:24:44.880Z,10.30
2019-03-18T13:27:48.186Z,7.35
2019-03-18T13:30:51.497Z,8.13
2019-03-18T13:33:54.822Z,7.60
2019-03-18T13:36:58.151Z,7.87
2019-03-18T13:40:01.455Z,9.30
2019-03-18T13:43:04.779Z,10.10
2019-03-18T13:46:08.108Z,12.37
2019-03-18T13:49:11.414Z,7.33
2019-03-18T13:52:14.736Z,14.25
2019-03-18T13:55:18.053Z,7.83
2019-03-18T13:58:21.367Z,7.22
2019-03-18T14:01:24.668Z,7.03
2019-03-18T14:04:27.981Z,7.67
2019-03-18T14:07:31.318Z,9.98
2019-03-18T14:10:34.646Z,11.48
2019-03-18T14:13:37.938Z,6.97
2019-03-18T14:16:41.249Z,8.63
2019-03-18T14:19:44.551Z,6.85
2019-03-18T14:22:47.887Z,6.85
2019-03-18T14:25:51.310Z,12.68
2019-03-18T14:28:54.607Z,11.53
2019-03-18T14:31:58.770Z,7.70
2019-03-18T14:35:02.086Z,6.40
2019-03-18T14:38:05.393Z,7.20
2019-03-18T14:41:08.745Z,7.30
2019-03-18T14:44:12.065Z,7.33
2019-03-18T14:47:15.394Z,11.20
2019-03-18T14:50:19.395Z,6.65
2019-03-18T14:53:22.703Z,7.20
2019-03-18T14:56:26.028Z,4.33
2019-03-18T14:59:29.346Z,3.22
2019-03-18T15:02:32.639Z,9.15
2019-03-18T15:05:37.076Z,6.28
2019-03-18T15:08:40.456Z,6.55
2019-03-18T15:11:43.815Z,8.00
2019-03-18T15:14:47.240Z,8.23
2019-03-18T15:17:50.607Z,6.30
2019-03-18T15:20:53.911Z,7.12
2019-03-18T15:23:57.272Z,8.98
2019-03-18T15:27:13.942Z,5.97
2019-03-18T15:30:20.740Z,7.78
2019-03-18T15:33:24.043Z,8.50
2019-03-18T15:36:27.339Z,7.08
2019-03-18T15:39:30.653Z,9.20
2019-03-18T15:42:34.021Z,10.20
2019-03-18T15:45:37.390Z,9.05
2019-03-18T15:48:40.731Z,11.80
2019-03-18T15:51:43.986Z,9.05
2019-03-18T15:54:53.746Z,12.33
2019-03-18T15:57:52.425Z,8.55
2019-03-18T16:00:55.758Z,10.13
2019-03-18T16:03:59.082Z,10.88
2019-03-18T16:07:07.991Z,8.28
2019-03-18T16:10:18.200Z,9.10
2019-03-18T16:13:21.498Z,14.15
2019-03-18T16:16:24.822Z,9.25
2019-03-18T16:19:28.147Z,7.42
2019-03-18T16:22:31.445Z,10.72
2019-03-18T16:25:34.806Z,12.10
2019-03-18T16:28:38.155Z,9.50
2019-03-18T16:31:41.487Z,11.65
2019-03-18T16:34:44.867Z,12.53
2019-03-18T16:37:48.177Z,6.55
2019-03-18T16:40:51.478Z,12.60
2019-03-18T16:43:54.801Z,10.05
2019-03-18T16:46:58.140Z,10.72
2019-03-18T16:50:01.479Z,9.93
2019-03-18T16:53:04.805Z,6.15
2019-03-18T16:56:08.132Z,8.03
2019-03-18T16:59:11.419Z,11.53
2019-03-18T17:02:14.727Z,11.88
2019-03-18T17:05:18.037Z,7.37
2019-03-18T17:08:21.341Z,10.88
2019-03-18T17:11:24.667Z,6.85
2019-03-18T17:14:27.970Z,8.65
2019-03-18T17:17:31.283Z,7.65
2019-03-18T17:20:34.599Z,9.83
2019-03-18T17:23:37.895Z,8.60
2019-03-18T17:26:41.238Z,8.98
2019-03-18T17:29:44.558Z,9.38
2019-03-18T17:32:47.886Z,10.82
2019-03-18T17:35:51.193Z,11.08
2019-03-18T17:38:54.526Z,13.75
2019-03-18T17:41:57.857Z,11.60
2019-03-18T17:45:01.157Z,10.38
2019-03-18T17:48:04.484Z,10.60
2019-03-18T17:51:07.786Z,7.80
2019-03-18T17:54:11.108Z,12.33
2019-03-18T17:57:14.437Z,12.65
2019-03-18T18:00:34.998Z,9.03
2019-03-18T18:03:38.403Z,13.05
2019-03-18T18:06:41.734Z,8.05
2019-03-18T18:09:45.083Z,14.25
2019-03-18T18:12:48.409Z,12.88
2019-03-18T18:15:51.736Z,8.88
2019-03-18T18:18:55.078Z,7.90
2019-03-18T18:21:58.430Z,10.10
2019-03-18T18:25:01.780Z,9.78
2019-03-18T18:28:05.108Z,6.80
2019-03-18T18:31:08.418Z,10.10
2019-03-18T18:34:11.774Z,17.10
2019-03-18T18:37:15.158Z,10.53
2019-03-18T18:40:20.821Z,10.28
2019-03-18T18:43:24.189Z,11.63
2019-03-18T18:46:27.498Z,11.30
2019-03-18T18:49:30.819Z,10.40
2019-03-18T18:52:34.137Z,10.33
2019-03-18T18:55:37.475Z,8.43
2019-03-18T18:58:40.881Z,9.87
2019-03-18T19:01:44.190Z,9.30
2019-03-18T19:04:47.530Z,9.15
2019-03-18T19:07:50.840Z,10.40
2019-03-18T19:10:54.876Z,9.53
2019-03-18T19:13:58.274Z,9.73
2019-03-18T19:17:02.027Z,9.63
2019-03-18T19:20:09.151Z,12.63
2019-03-18T19:23:13.320Z,6.73
2019-03-18T19:26:17.075Z,6.80
2019-03-18T19:29:21.252Z,11.27
2019-03-18T19:32:27.302Z,7.70
2019-03-18T19:35:31.592Z,12.57
2019-03-18T19:38:34.923Z,8.60
2019-03-18T19:41:40.193Z,7.57
2019-03-18T19:44:43.274Z,11.07
2019-03-18T19:47:46.579Z,7.47
2019-03-18T19:50:49.909Z,7.83
2019-03-18T19:53:53.221Z,13.77
2019-03-18T19:56:56.580Z,13.53
2019-03-18T20:00:08.954Z,12.50
2019-03-18T20:06:15.419Z,13.08
2019-03-18T20:09:18.866Z,11.60
2019-03-18T20:12:22.262Z,11.23
2019-03-18T20:15:25.668Z,13.40
2019-03-18T20:18:29.012Z,10.73
2019-03-18T20:21:32.674Z,15.63
2019-03-18T20:24:36.046Z,12.53
2019-03-18T20:27:39.378Z,13.80
2019-03-18T20:30:42.826Z,11.20
2019-03-18T20:33:46.121Z,11.87
2019-03-18T20:36:49.467Z,14.93
2019-03-18T20:39:52.881Z,10.97
2019-03-18T20:42:56.230Z,15.50
2019-03-18T20:45:59.560Z,15.27
2019-03-18T20:49:02.952Z,9.70
2019-03-18T20:52:16.406Z,11.53
2019-03-18T20:55:11.487Z,11.37
2019-03-18T20:58:14.839Z,13.57
2019-03-18T21:01:18.160Z,14.47
2019-03-18T21:04:21.511Z,13.97
2019-03-18T21:07:24.848Z,11.73
2019-03-18T21:10:28.210Z,13.53
2019-03-18T21:13:31.586Z,12.53
2019-03-18T21:16:34.990Z,15.43
2019-03-18T21:19:38.305Z,17.43
2019-03-18T21:22:41.734Z,15.30
2019-03-18T21:25:45.031Z,13.20
2019-03-18T21:28:49.352Z,16.83
2019-03-18T21:31:52.702Z,12.28
2019-03-18T21:34:56.028Z,20.90
2019-03-18T21:37:59.366Z,19.87
2019-03-18T21:41:02.692Z,12.97
2019-03-18T21:44:06.042Z,13.43
2019-03-18T21:47:09.420Z,13.30
2019-03-18T21:50:14.253Z,10.70
2019-03-18T21:53:17.577Z,8.67
2019-03-18T21:56:20.878Z,12.53
2019-03-18T21:59:24.225Z,16.17
2019-03-18T22:02:27.565Z,13.70
2019-03-18T22:05:30.893Z,12.30
2019-03-18T22:08:34.285Z,12.70
2019-03-18T22:11:37.636Z,11.47
2019-03-18T22:14:40.961Z,17.63
2019-03-18T22:17:44.289Z,11.13
2019-03-18T22:20:47.608Z,14.33
2019-03-18T22:23:50.923Z,14.17
2019-03-18T22:26:54.260Z,10.67
2019-03-18T22:29:57.583Z,13.93
2019-03-18T22:33:00.920Z,15.37
2019-03-18T22:36:04.258Z,12.70
2019-03-18T22:39:08.618Z,12.50
2019-03-18T22:42:11.966Z,13.97
2019-03-18T22:45:17.486Z,11.77
2019-03-18T22:48:20.828Z,13.87
2019-03-18T22:51:24.130Z,12.17
2019-03-18T22:54:27.453Z,17.40
2019-03-18T22:57:30.810Z,18.73
2019-03-18T23:00:35.790Z,17.23
2019-03-18T23:03:39.120Z,17.67
2019-03-18T23:06:42.408Z,19.67
2019-03-18T23:09:45.736Z,24.87
2019-03-18T23:12:49.093Z,18.70
2019-03-18T23:15:52.370Z,25.20
2019-03-18T23:18:55.712Z,19.53
2019-03-18T23:21:59.106Z,22.67
2019-03-18T23:25:06.951Z,20.37
2019-03-18T23:28:07.422Z,18.10
2019-03-18T23:31:10.758Z,24.47
2019-03-18T23:34:14.109Z,30.43
2019-03-18T23:37:17.418Z,30.07
2019-03-18T23:40:20.785Z,20.90
2019-03-18T23:43:24.137Z,20.67
2019-03-18T23:46:27.489Z,18.00
2019-03-18T23:49:30.834Z,22.47
2019-03-18T23:52:34.162Z,18.63
2019-03-18T23:55:37.491Z,20.10
2019-03-18T23:58:40.814Z,25.30
